This is the latest recevied weather packets stored in our database for station/object FREPRT-WX. If no packets are shown the sender has not sent any weather packets the latest 10 day(s).
| Time | Temp. | Humidity | Pressure | Rain* | Wind** | Luminosity | Snow |
|---|---|---|---|---|---|---|---|
| 1777861853 | 8.89° C | 71% | 978.8 hPa | 0 mm | - | - | - |
| 1777860937 | 8.89° C | 71% | 978.8 hPa | 0 mm | - | - | - |
| 1777860069 | 8.89° C | 71% | 978.8 hPa | 0 mm | - | - | - |
| 1777859137 | 8.89° C | 70% | 979.3 hPa | 0 mm | - | - | - |
| 1777858256 | 9.44° C | 70% | 979.3 hPa | 0 mm | - | - | - |
| 1777857336 | 9.44° C | 70% | 979.3 hPa | 0 mm | - | - | - |
| 1777856468 | 9.44° C | 70% | 979.3 hPa | 0 mm | - | - | - |
| 1777855537 | 10° C | 64% | 980 hPa | 0 mm | - | - | - |
| 1777854656 | 10° C | 67% | 980.3 hPa | 0 mm | - | - | - |
| 1777853737 | 10.56° C | 67% | 980.3 hPa | 0 mm | - | - | - |
| 1777852874 | 11.11° C | 67% | 980.3 hPa | 0 mm | - | - | - |
| 1777851938 | 11.67° C | 59% | 981.1 hPa | 0 mm | - | - | - |
| 1777851057 | 11.67° C | 56% | 980.4 hPa | 0 mm | - | - | - |
| 1777850138 | 12.78° C | 56% | 980.4 hPa | 0 mm | - | - | - |
| 1777849262 | 12.78° C | 56% | 980.4 hPa | 0 mm | - | - | - |
| 1777848338 | 12.78° C | 56% | 980.9 hPa | 0 mm | - | - | - |
| 1777847457 | 13.33° C | 56% | 981.1 hPa | 0 mm | - | - | - |
| 1777846538 | 13.33° C | 56% | 981.2 hPa | 0 mm | - | - | - |
| 1777845676 | 13.89° C | 56% | 981.2 hPa | 0 mm | - | - | - |
| 1777844738 | 12.78° C | 52% | 981.6 hPa | 0 mm | - | - | - |
| 1777843856 | 13.33° C | 51% | 981.5 hPa | 0 mm | - | - | - |
| 1777842938 | 13.33° C | 51% | 981.5 hPa | 0 mm | - | - | - |
| 1777842066 | 14.44° C | 51% | 981.5 hPa | 0 mm | - | - | - |
| 1777841138 | 13.89° C | 48% | 982.3 hPa | 0 mm | - | - | - |
| 1777840257 | 14.44° C | 49% | 982.1 hPa | 0 mm | - | - | - |
* Rain latest hour (hover to see other rain measurements)
** Current wind speed in m/s (hover to see current wind gust speed)